Time;durP1;ratioP1;P1;durP2;ratioP2;P2;SDS_P1;SDS_P2;PMS_P1;PMS_P2;Temp;Humidity;BMP_temperature;BMP_pressure;BME280_temperature;BME280_humidity;BME280_pressure;Samples;Min_cycle;Max_cycle;Signal;HPM_P1;HPM_P2
2023/01/13 00:01:08;;;;;;;1.27;0.47;;;10.60;99.90;;;;;;5057526;28;20208;-82
2023/01/13 00:03:34;;;;;;;0.50;0.50;;;10.70;99.90;;;;;;5058124;28;20183;-82
2023/01/13 00:05:59;;;;;;;1.97;0.40;;;10.70;99.90;;;;;;5057942;28;20179;-82
2023/01/13 00:08:25;;;;;;;1.70;0.60;;;10.70;99.90;;;;;;5056780;28;20179;-82
2023/01/13 00:10:51;;;;;;;0.40;0.40;;;10.70;99.90;;;;;;5057015;28;20202;-83
2023/01/13 00:13:16;;;;;;;1.80;0.70;;;10.60;99.90;;;;;;5057209;28;20184;-82
2023/01/13 00:15:42;;;;;;;1.93;0.60;;;10.70;99.90;;;;;;5058222;28;20313;-82
2023/01/13 00:18:07;;;;;;;2.70;0.63;;;10.60;99.90;;;;;;5057104;28;20615;-82
2023/01/13 00:20:33;;;;;;;0.97;0.57;;;10.70;99.90;;;;;;5059583;28;20399;-83
2023/01/13 00:23:00;;;;;;;2.23;0.60;;;10.70;99.90;;;;;;5060353;28;20253;-83
2023/01/13 00:25:25;;;;;;;1.13;0.60;;;10.60;99.90;;;;;;5061232;28;20199;-82
2023/01/13 00:27:51;;;;;;;2.10;0.80;;;10.60;99.90;;;;;;5060799;28;20542;-83
2023/01/13 00:30:16;;;;;;;1.93;0.60;;;10.60;99.90;;;;;;5058669;28;20662;-83
2023/01/13 00:32:42;;;;;;;1.93;0.67;;;10.60;99.90;;;;;;5060493;28;20171;-83
2023/01/13 00:35:08;;;;;;;0.57;0.47;;;10.50;99.90;;;;;;5061718;28;20167;-83
2023/01/13 00:37:37;;;;;;;0.80;0.60;;;10.40;99.90;;;;;;5060326;28;20179;-83
2023/01/13 00:40:03;;;;;;;2.87;0.70;;;10.50;99.90;;;;;;5060130;28;20199;-82
2023/01/13 00:45:14;;;;;;;3.17;0.90;;;10.50;99.90;;;;;;5061769;28;20727;-84
2023/01/13 00:47:39;;;;;;;4.10;1.10;;;10.40;99.90;;;;;;5060830;28;20197;-82
2023/01/13 00:50:05;;;;;;;6.03;0.97;;;10.40;99.90;;;;;;5061435;28;20231;-83
2023/01/13 00:52:32;;;;;;;1.07;0.53;;;10.50;99.90;;;;;;5059738;28;20183;-82
2023/01/13 00:54:57;;;;;;;1.97;0.67;;;10.40;99.90;;;;;;5061951;28;20198;-83
2023/01/13 00:57:23;;;;;;;1.40;0.70;;;10.40;99.90;;;;;;5060680;28;20183;-83
2023/01/13 00:59:49;;;;;;;6.53;0.97;;;10.30;99.90;;;;;;5061359;28;20172;-83
2023/01/13 01:02:14;;;;;;;2.23;0.70;;;10.30;99.90;;;;;;5060863;28;20200;-83
2023/01/13 01:04:40;;;;;;;2.90;0.80;;;10.40;99.90;;;;;;5060336;28;20239;-83
2023/01/13 01:07:05;;;;;;;3.73;0.60;;;10.40;99.90;;;;;;5060078;28;20167;-83
2023/01/13 01:09:33;;;;;;;2.13;0.83;;;10.30;99.90;;;;;;5059593;28;20172;-82
2023/01/13 01:11:59;;;;;;;4.23;0.87;;;10.30;99.90;;;;;;5061881;28;20195;-82
2023/01/13 01:14:26;;;;;;;2.57;0.67;;;10.30;99.90;;;;;;5062193;28;20230;-83
2023/01/13 01:16:51;;;;;;;4.33;1.10;;;10.30;99.90;;;;;;5062030;28;20176;-82
2023/01/13 01:19:17;;;;;;;4.40;1.47;;;10.20;99.90;;;;;;5060232;28;20186;-82
2023/01/13 01:21:43;;;;;;;3.87;1.03;;;10.20;99.90;;;;;;5059242;28;20211;-82
2023/01/13 01:24:08;;;;;;;7.57;1.60;;;10.20;99.90;;;;;;5061456;28;20168;-83
2023/01/13 01:26:34;;;;;;;4.83;0.97;;;10.30;99.90;;;;;;5060658;28;20214;-82
2023/01/13 01:29:01;;;;;;;3.03;0.87;;;10.30;99.90;;;;;;5061239;28;20301;-82
2023/01/13 01:31:31;;;;;;;3.70;1.17;;;10.20;99.90;;;;;;5058702;28;20200;-82
2023/01/13 01:33:58;;;;;;;7.43;1.40;;;10.20;99.90;;;;;;5060077;28;20194;-83
2023/01/13 01:36:25;;;;;;;6.70;1.50;;;10.30;99.90;;;;;;5060815;28;20187;-82
2023/01/13 01:38:51;;;;;;;11.13;1.20;;;10.20;99.90;;;;;;5059427;28;20180;-83
2023/01/13 01:41:22;;;;;;;6.33;1.53;;;10.20;99.90;;;;;;5060031;28;20253;-83
2023/01/13 01:44:03;;;;;;;8.83;1.77;;;10.20;99.90;;;;;;5060172;28;20632;-83
2023/01/13 01:46:37;;;;;;;10.07;1.53;;;10.20;99.90;;;;;;5059940;28;20182;-82
2023/01/13 01:49:25;;;;;;;7.50;1.67;;;10.20;99.90;;;;;;5060647;28;20162;-82
2023/01/13 01:52:12;;;;;;;11.03;1.67;;;10.20;99.90;;;;;;5060886;28;20542;-83
2023/01/13 01:54:53;;;;;;;6.93;1.37;;;10.10;99.90;;;;;;5060222;28;20631;-83
2023/01/13 01:57:25;;;;;;;6.47;1.60;;;10.10;99.90;;;;;;5061083;28;20163;-82
2023/01/13 01:59:52;;;;;;;9.23;1.53;;;10.00;99.90;;;;;;5061492;28;20163;-82
2023/01/13 02:02:17;;;;;;;9.17;1.30;;;10.00;99.90;;;;;;5059075;28;20234;-82
2023/01/13 02:04:49;;;;;;;5.77;1.33;;;9.90;99.90;;;;;;5059690;28;20171;-82
2023/01/13 02:07:37;;;;;;;8.00;1.47;;;9.90;99.90;;;;;;5059400;28;20160;-83
2023/01/13 02:10:06;;;;;;;8.23;1.40;;;9.90;99.90;;;;;;5060912;28;20210;-82
2023/01/13 02:12:32;;;;;;;5.00;1.10;;;9.80;99.90;;;;;;5061213;28;20172;-82
2023/01/13 02:15:07;;;;;;;6.67;1.47;;;9.70;99.90;;;;;;5060714;28;20187;-83
2023/01/13 02:17:54;;;;;;;7.43;1.30;;;9.70;99.90;;;;;;5060045;28;20186;-82
2023/01/13 02:20:43;;;;;;;7.37;1.40;;;9.80;99.90;;;;;;5060626;28;20285;-83
2023/01/13 02:26:54;;;;;;;10.17;1.77;;;9.70;99.90;;;;;;5060995;28;20163;-83
2023/01/13 02:32:49;;;;;;;6.13;1.43;;;9.70;99.90;;;;;;5061797;28;20191;-82
2023/01/13 02:35:21;;;;;;;11.83;1.83;;;9.70;99.90;;;;;;5060834;28;20533;-82
2023/01/13 02:37:48;;;;;;;9.57;1.90;;;9.60;99.90;;;;;;5062722;28;20163;-82
2023/01/13 02:40:24;;;;;;;11.07;2.00;;;9.70;99.90;;;;;;5068322;28;20318;-82
2023/01/13 02:46:10;;;;;;;8.70;1.53;;;9.70;99.90;;;;;;5072932;28;20186;-82
2023/01/13 02:48:38;;;;;;;6.87;1.40;;;9.70;99.90;;;;;;4973171;28;20283;-82
2023/01/13 02:51:08;;;;;;;5.63;1.47;;;9.60;99.90;;;;;;5058707;28;20207;-82
2023/01/13 02:54:08;;;;;;;5.23;1.40;;;9.50;99.90;;;;;;5059207;28;20171;-82
2023/01/13 02:56:38;;;;;;;10.17;1.73;;;9.50;99.90;;;;;;5060125;28;20164;-82
2023/01/13 02:59:05;;;;;;;9.00;1.50;;;9.60;99.90;;;;;;5060620;28;20285;-82
2023/01/13 03:01:30;;;;;;;8.67;1.70;;;9.50;99.90;;;;;;5059336;28;20294;-83
2023/01/13 03:03:56;;;;;;;4.63;1.67;;;9.40;99.90;;;;;;5058648;28;20207;-82
2023/01/13 03:06:29;;;;;;;6.53;1.00;;;9.30;99.90;;;;;;5060488;28;20214;-82
2023/01/13 03:09:10;;;;;;;9.67;1.73;;;9.20;99.90;;;;;;5059741;28;20164;-82
2023/01/13 03:12:11;;;;;;;8.47;1.40;;;9.10;99.90;;;;;;5059573;28;20224;-82
2023/01/13 03:14:54;;;;;;;7.70;1.50;;;9.10;99.90;;;;;;5008486;28;20187;-83
2023/01/13 03:17:40;;;;;;;4.57;1.10;;;8.90;99.90;;;;;;5058354;28;20172;-83
2023/01/13 03:20:20;;;;;;;7.97;1.43;;;8.80;99.90;;;;;;5058967;28;20209;-82
2023/01/13 03:23:16;;;;;;;6.77;1.23;;;8.80;99.90;;;;;;5059527;28;20206;-82
2023/01/13 03:26:04;;;;;;;7.77;1.47;;;8.70;99.90;;;;;;5059467;28;20163;-82
2023/01/13 03:28:35;;;;;;;10.63;1.93;;;8.60;99.90;;;;;;5059498;28;20168;-83
2023/01/13 03:31:08;;;;;;;2.90;1.00;;;8.50;99.90;;;;;;5057264;28;20206;-82
2023/01/13 03:33:44;;;;;;;7.37;1.57;;;8.40;99.90;;;;;;5059218;28;20178;-82
2023/01/13 03:36:12;;;;;;;7.87;1.30;;;8.40;99.90;;;;;;5057753;28;20546;-82
2023/01/13 03:38:45;;;;;;;5.67;0.90;;;8.30;99.90;;;;;;5059232;28;20709;-82
2023/01/13 03:41:26;;;;;;;6.73;1.17;;;8.30;99.90;;;;;;5059517;28;20213;-83
2023/01/13 03:44:21;;;;;;;7.03;1.00;;;8.20;99.90;;;;;;5057465;28;20168;-82
2023/01/13 03:47:00;;;;;;;5.33;1.03;;;8.20;99.90;;;;;;5058759;28;20528;-82
2023/01/13 03:49:37;;;;;;;5.03;1.10;;;8.10;99.90;;;;;;5058009;28;20198;-82
2023/01/13 03:52:07;;;;;;;5.73;1.37;;;8.10;99.90;;;;;;5059129;28;20200;-82
2023/01/13 03:54:39;;;;;;;4.80;1.10;;;8.10;99.90;;;;;;5060256;28;20167;-82
2023/01/13 03:57:09;;;;;;;6.07;1.10;;;8.00;99.90;;;;;;5061991;28;20258;-82
2023/01/13 03:59:43;;;;;;;3.77;0.80;;;8.00;99.90;;;;;;5062224;28;20167;-82
2023/01/13 04:02:16;;;;;;;4.07;1.77;;;8.00;99.90;;;;;;5062074;28;20210;-82
2023/01/13 04:04:56;;;;;;;7.97;1.30;;;7.90;99.90;;;;;;5062176;28;20164;-82
2023/01/13 04:07:42;;;;;;;6.20;1.20;;;7.90;99.90;;;;;;5060985;28;20167;-82
2023/01/13 04:10:10;;;;;;;4.93;1.73;;;7.90;99.90;;;;;;5061337;28;20164;-83
2023/01/13 04:13:00;;;;;;;9.93;1.40;;;7.80;99.90;;;;;;5062891;28;20183;-82
2023/01/13 04:15:32;;;;;;;5.67;1.20;;;7.90;99.90;;;;;;5061635;28;20164;-83
2023/01/13 04:18:20;;;;;;;3.67;1.00;;;7.90;99.90;;;;;;5061716;28;20160;-82
2023/01/13 04:20:48;;;;;;;5.63;1.20;;;7.90;99.90;;;;;;5060938;28;20774;-83
2023/01/13 04:23:15;;;;;;;5.70;1.33;;;7.90;99.90;;;;;;5061460;28;20172;-82
2023/01/13 04:25:41;;;;;;;6.07;1.30;;;7.90;99.90;;;;;;5062566;28;20698;-82
2023/01/13 04:28:07;;;;;;;6.67;1.23;;;7.90;99.90;;;;;;5062968;28;20172;-82
2023/01/13 04:30:33;;;;;;;9.07;1.50;;;8.00;99.90;;;;;;5062838;28;20187;-83
2023/01/13 04:32:58;;;;;;;6.70;1.70;;;8.00;99.90;;;;;;5062971;28;20182;-82
2023/01/13 04:35:24;;;;;;;7.03;1.77;;;8.00;99.90;;;;;;5062472;28;20175;-82
2023/01/13 04:37:50;;;;;;;10.47;1.73;;;8.10;99.90;;;;;;5060815;28;20547;-82
2023/01/13 04:40:15;;;;;;;9.13;1.37;;;8.10;99.90;;;;;;5061912;28;20674;-83
2023/01/13 04:42:43;;;;;;;7.63;1.77;;;8.10;99.90;;;;;;5060841;28;20195;-82
2023/01/13 04:45:09;;;;;;;11.90;1.97;;;8.10;99.90;;;;;;5062421;28;20200;-83
2023/01/13 04:47:35;;;;;;;9.00;2.00;;;8.20;99.90;;;;;;5062303;28;20164;-82
2023/01/13 04:50:00;;;;;;;9.80;2.60;;;8.30;99.90;;;;;;5060726;28;20709;-83
2023/01/13 04:52:26;;;;;;;10.83;2.07;;;8.20;99.90;;;;;;5062214;28;20187;-82
2023/01/13 04:54:51;;;;;;;8.47;1.97;;;8.30;99.90;;;;;;5061825;28;20650;-81
2023/01/13 04:57:17;;;;;;;6.80;1.80;;;8.30;99.90;;;;;;5061536;28;20180;-82
2023/01/13 04:59:42;;;;;;;12.00;2.07;;;8.30;99.90;;;;;;5059597;28;20175;-81
2023/01/13 05:02:08;;;;;;;15.27;2.03;;;8.40;99.90;;;;;;5052981;28;20222;-83
2023/01/13 05:04:34;;;;;;;8.77;1.73;;;8.40;99.90;;;;;;5049828;28;20187;-82
2023/01/13 05:07:00;;;;;;;8.07;1.77;;;8.40;99.90;;;;;;5051754;28;20267;-83
2023/01/13 05:09:25;;;;;;;9.17;2.10;;;8.40;99.90;;;;;;5053373;28;20579;-84
2023/01/13 05:17:23;;;;;;;9.53;2.30;;;8.40;99.90;;;;;;5052301;28;20333;-83
2023/01/13 05:19:48;;;;;;;14.83;3.03;;;8.50;99.90;;;;;;5053133;28;20191;-83
2023/01/13 05:27:42;;;;;;;5.87;1.67;;;8.50;99.90;;;;;;5055158;28;20191;-82
2023/01/13 05:30:09;;;;;;;5.63;1.30;;;8.50;99.90;;;;;;5068175;28;20179;-82
2023/01/13 05:32:34;;;;;;;6.37;1.60;;;8.50;99.90;;;;;;5065293;28;20192;-81
2023/01/13 05:35:00;;;;;;;11.77;2.00;;;8.50;99.90;;;;;;5048977;28;20218;-82
2023/01/13 05:37:26;;;;;;;8.87;1.73;;;8.50;99.90;;;;;;5050765;28;20180;-82
2023/01/13 05:45:22;;;;;;;8.27;1.63;;;8.40;99.90;;;;;;5051314;28;20224;-82
2023/01/13 05:47:47;;;;;;;7.80;1.60;;;8.40;99.90;;;;;;5046734;28;20177;-82
2023/01/13 05:50:13;;;;;;;4.97;1.40;;;8.40;99.90;;;;;;5047510;28;20656;-82
2023/01/13 05:52:38;;;;;;;7.90;1.43;;;8.30;99.90;;;;;;5048057;28;20193;-82
2023/01/13 05:55:04;;;;;;;10.33;1.70;;;8.20;99.90;;;;;;5046564;28;20191;-82
2023/01/13 05:57:30;;;;;;;10.30;2.10;;;8.20;99.90;;;;;;5046468;28;20235;-81
2023/01/13 05:59:55;;;;;;;10.90;1.73;;;8.10;99.90;;;;;;5046152;28;20184;-81
2023/01/13 06:02:21;;;;;;;9.37;1.50;;;8.20;99.90;;;;;;5046569;28;20287;-80
2023/01/13 06:04:47;;;;;;;12.20;1.90;;;8.10;99.90;;;;;;5046806;28;20540;-81
2023/01/13 06:07:12;;;;;;;11.17;1.57;;;8.10;99.90;;;;;;5046199;28;20176;-80
2023/01/13 06:09:38;;;;;;;12.30;1.67;;;8.10;99.90;;;;;;5046377;28;20172;-81
2023/01/13 06:12:03;;;;;;;7.70;1.80;;;8.10;99.90;;;;;;5046484;28;20267;-81
2023/01/13 06:14:38;;;;;;;8.87;1.73;;;8.10;99.90;;;;;;5046461;28;20179;-81
2023/01/13 06:17:06;;;;;;;9.30;1.70;;;8.10;99.90;;;;;;5047495;28;20173;-81
2023/01/13 06:19:31;;;;;;;9.87;1.63;;;8.20;99.90;;;;;;5049013;28;20241;-81
2023/01/13 06:21:57;;;;;;;12.17;1.87;;;8.20;99.90;;;;;;5047301;28;20235;-81
2023/01/13 06:24:22;;;;;;;10.87;1.80;;;8.20;99.90;;;;;;5047552;28;20222;-81
2023/01/13 06:26:48;;;;;;;9.03;1.90;;;8.20;99.90;;;;;;5049309;28;20203;-80
2023/01/13 06:29:15;;;;;;;14.93;2.43;;;8.20;99.90;;;;;;5049671;28;20215;-81
2023/01/13 06:31:41;;;;;;;9.20;1.40;;;8.20;99.90;;;;;;5049974;28;20199;-81
2023/01/13 06:34:12;;;;;;;11.53;1.77;;;8.20;99.90;;;;;;5054419;28;20184;-81
2023/01/13 06:36:42;;;;;;;9.70;1.50;;;8.10;99.90;;;;;;5055261;28;20149;-80
2023/01/13 06:39:10;;;;;;;11.93;2.10;;;8.10;99.90;;;;;;5052590;28;20206;-81
2023/01/13 06:44:22;;;;;;;8.67;1.23;;;8.10;99.90;;;;;;5046491;28;20172;-81
2023/01/13 06:46:47;;;;;;;5.40;1.10;;;8.10;99.90;;;;;;5046719;28;20190;-80
2023/01/13 06:49:13;;;;;;;7.40;1.63;;;8.10;99.90;;;;;;5046087;28;20696;-80
2023/01/13 06:51:38;;;;;;;8.70;1.90;;;8.10;99.90;;;;;;5048008;28;20196;-81
2023/01/13 06:54:04;;;;;;;7.73;1.63;;;8.00;99.90;;;;;;5049686;28;20176;-81
2023/01/13 06:56:30;;;;;;;8.60;2.00;;;8.10;99.90;;;;;;5049326;28;20190;-81
2023/01/13 06:58:55;;;;;;;5.23;1.33;;;8.00;99.90;;;;;;5050760;28;20243;-81
2023/01/13 07:01:21;;;;;;;7.17;1.57;;;8.00;99.90;;;;;;5047244;28;20219;-81
2023/01/13 07:03:46;;;;;;;12.50;1.90;;;8.00;99.90;;;;;;5044353;28;20180;-81
2023/01/13 07:06:12;;;;;;;10.43;1.87;;;8.00;99.90;;;;;;5046887;28;20187;-81
2023/01/13 07:08:37;;;;;;;9.47;1.50;;;8.00;99.90;;;;;;5043307;28;20690;-81
2023/01/13 07:11:03;;;;;;;4.00;1.30;;;8.00;99.90;;;;;;5043984;28;20214;-81
2023/01/13 07:16:13;;;;;;;8.70;1.83;;;7.90;99.90;;;;;;5046364;28;20164;-81
2023/01/13 07:18:38;;;;;;;7.07;1.60;;;7.90;99.90;;;;;;5044903;28;20180;-81
2023/01/13 07:21:06;;;;;;;9.27;1.70;;;7.90;99.90;;;;;;5044211;28;20263;-81
2023/01/13 07:23:36;;;;;;;7.30;1.47;;;7.80;99.90;;;;;;5044498;28;20183;-81
2023/01/13 07:26:03;;;;;;;7.03;1.40;;;7.80;99.90;;;;;;5046661;28;20529;-81
2023/01/13 07:28:29;;;;;;;12.83;1.80;;;7.80;99.90;;;;;;5044062;28;20184;-81
2023/01/13 07:30:55;;;;;;;7.03;1.43;;;7.80;99.90;;;;;;5049760;28;20192;-80
2023/01/13 07:33:21;;;;;;;6.50;2.10;;;7.90;99.90;;;;;;5050710;28;20234;-81
2023/01/13 07:35:48;;;;;;;12.70;1.77;;;7.90;99.90;;;;;;5050703;28;20659;-80
2023/01/13 07:38:14;;;;;;;7.50;1.60;;;8.00;99.90;;;;;;5048595;28;20670;-81
2023/01/13 07:40:39;;;;;;;6.87;2.00;;;8.00;99.90;;;;;;5049044;28;20749;-81
2023/01/13 07:46:04;;;;;;;7.07;1.37;;;8.10;99.90;;;;;;5051171;28;20183;-79
2023/01/13 07:48:33;;;;;;;7.73;1.87;;;8.20;99.90;;;;;;5049510;28;20171;-80
2023/01/13 07:51:04;;;;;;;9.63;1.77;;;8.20;99.90;;;;;;5050725;28;20200;-81
2023/01/13 07:53:30;;;;;;;6.80;1.30;;;8.30;99.90;;;;;;5049976;28;20183;-80
2023/01/13 07:55:57;;;;;;;8.57;1.47;;;8.30;99.90;;;;;;5050145;28;20186;-80
2023/01/13 07:58:23;;;;;;;9.03;1.60;;;8.30;99.90;;;;;;5049365;28;20210;-80
2023/01/13 08:00:49;;;;;;;6.90;1.20;;;8.30;99.90;;;;;;5050723;28;20199;-81
2023/01/13 08:03:14;;;;;;;9.63;1.80;;;8.30;99.90;;;;;;5048666;28;20180;-80
2023/01/13 08:05:40;;;;;;;7.30;1.33;;;8.30;99.90;;;;;;5049371;28;20177;-80
2023/01/13 08:08:05;;;;;;;4.97;1.23;;;8.30;99.90;;;;;;5050772;28;20172;-81
2023/01/13 08:10:31;;;;;;;8.53;1.73;;;8.40;99.90;;;;;;5050601;28;20188;-80
2023/01/13 08:15:41;;;;;;;6.13;1.17;;;8.40;99.90;;;;;;5050576;28;20163;-81
2023/01/13 08:18:06;;;;;;;11.40;1.87;;;8.50;99.90;;;;;;5049217;28;20173;-80
2023/01/13 08:20:32;;;;;;;10.80;1.87;;;8.50;99.90;;;;;;5049738;28;20207;-80
2023/01/13 08:22:59;;;;;;;13.23;1.83;;;8.50;99.90;;;;;;5050036;28;20577;-80
2023/01/13 08:25:25;;;;;;;14.00;4.70;;;8.50;99.90;;;;;;5050558;28;20182;-80
2023/01/13 08:27:51;;;;;;;10.30;1.90;;;8.40;99.90;;;;;;5048546;28;20188;-80
2023/01/13 08:30:17;;;;;;;8.73;1.70;;;8.40;99.90;;;;;;5048020;28;20771;-80
2023/01/13 08:32:47;;;;;;;10.03;1.97;;;8.40;99.90;;;;;;5049614;28;20180;-80
2023/01/13 08:35:13;;;;;;;9.63;1.73;;;8.40;99.90;;;;;;5050163;28;20180;-80
2023/01/13 08:37:39;;;;;;;6.03;1.70;;;8.40;99.90;;;;;;5048807;28;20176;-80
2023/01/13 08:40:05;;;;;;;7.83;1.60;;;8.40;99.90;;;;;;5048082;28;20605;-81
2023/01/13 08:42:31;;;;;;;7.60;1.77;;;8.40;99.90;;;;;;5049154;28;20576;-80
2023/01/13 08:44:57;;;;;;;5.17;1.50;;;8.40;99.90;;;;;;5049800;28;20172;-80
2023/01/13 08:47:23;;;;;;;8.50;1.47;;;8.40;99.90;;;;;;5049792;28;20180;-80
2023/01/13 08:49:48;;;;;;;9.87;1.90;;;8.40;99.90;;;;;;5049427;28;20587;-80
2023/01/13 08:52:14;;;;;;;6.37;1.70;;;8.40;99.90;;;;;;5048430;28;20200;-80
2023/01/13 08:54:40;;;;;;;16.73;1.90;;;8.40;99.90;;;;;;5050138;28;20184;-80
2023/01/13 08:57:05;;;;;;;6.87;1.33;;;8.50;99.90;;;;;;5050069;28;20544;-82
2023/01/13 08:59:32;;;;;;;8.23;1.60;;;8.50;99.90;;;;;;5046808;28;20572;-80
2023/01/13 09:01:58;;;;;;;13.73;1.90;;;8.50;99.90;;;;;;5049813;28;20200;-80
2023/01/13 09:04:26;;;;;;;9.30;1.73;;;8.50;99.90;;;;;;5047537;28;20214;-80
2023/01/13 09:06:53;;;;;;;7.63;2.07;;;8.50;99.90;;;;;;5049988;28;20178;-80
2023/01/13 09:09:19;;;;;;;5.87;1.97;;;8.50;99.90;;;;;;5049125;28;20199;-81
2023/01/13 09:14:34;;;;;;;5.60;1.70;;;8.50;99.90;;;;;;5049443;28;20167;-81
2023/01/13 09:17:00;;;;;;;13.70;2.30;;;8.60;99.90;;;;;;5047008;28;20176;-80
2023/01/13 09:19:27;;;;;;;14.67;2.27;;;8.60;99.90;;;;;;5047653;28;20667;-80
2023/01/13 09:21:54;;;;;;;9.10;1.90;;;8.60;99.90;;;;;;5048670;28;20686;-80
2023/01/13 09:24:20;;;;;;;13.43;2.30;;;8.70;99.90;;;;;;5047588;28;20203;-80
2023/01/13 09:26:45;;;;;;;9.57;1.83;;;8.60;99.90;;;;;;5047681;28;20208;-80
2023/01/13 09:29:11;;;;;;;7.30;2.07;;;8.70;99.90;;;;;;5048290;28;20651;-79
2023/01/13 09:31:37;;;;;;;12.83;1.80;;;8.60;99.90;;;;;;5048053;28;20200;-81
2023/01/13 09:36:49;;;;;;;17.00;2.73;;;8.70;99.90;;;;;;5048690;28;20643;-81
2023/01/13 09:39:16;;;;;;;18.03;1.93;;;8.70;99.90;;;;;;5048366;28;20191;-80
2023/01/13 09:44:49;;;;;;;13.30;2.27;;;8.70;99.90;;;;;;5048615;28;20159;-80
2023/01/13 09:47:29;;;;;;;17.17;2.93;;;8.70;99.90;;;;;;5047698;28;20160;-80
2023/01/13 09:50:05;;;;;;;15.27;2.93;;;8.80;99.90;;;;;;5048738;28;20194;-80
2023/01/13 09:52:31;;;;;;;13.50;2.10;;;8.80;99.90;;;;;;5046784;28;20168;-80
2023/01/13 09:55:07;;;;;;;10.50;2.57;;;8.80;99.90;;;;;;5046958;28;20271;-80
2023/01/13 09:57:36;;;;;;;13.10;2.50;;;8.90;99.90;;;;;;5047173;28;20176;-81
2023/01/13 10:00:09;;;;;;;9.37;2.00;;;8.90;99.90;;;;;;5046568;28;20247;-81
2023/01/13 10:02:54;;;;;;;12.83;2.30;;;8.90;99.90;;;;;;5047370;28;20260;-80
2023/01/13 10:05:39;;;;;;;10.57;2.70;;;8.90;99.90;;;;;;5046681;28;20195;-80
2023/01/13 10:08:26;;;;;;;20.93;2.90;;;8.90;99.90;;;;;;5047565;28;20186;-82
2023/01/13 10:10:58;;;;;;;16.20;2.83;;;8.90;99.90;;;;;;5047431;28;20196;-82
2023/01/13 10:13:29;;;;;;;9.60;1.97;;;9.00;99.90;;;;;;5049024;28;20175;-82
2023/01/13 10:16:03;;;;;;;11.53;2.50;;;9.00;99.90;;;;;;5047610;28;20177;-82
2023/01/13 10:18:38;;;;;;;16.67;2.80;;;9.00;99.90;;;;;;5046743;28;20164;-83
2023/01/13 10:21:16;;;;;;;9.47;2.23;;;9.10;99.90;;;;;;5048815;28;20211;-82
2023/01/13 10:24:06;;;;;;;15.30;2.37;;;9.10;99.90;;;;;;5049031;28;20164;-82
2023/01/13 10:27:04;;;;;;;12.07;2.17;;;9.10;99.90;;;;;;5048318;28;20168;-81
2023/01/13 10:29:31;;;;;;;12.27;2.53;;;9.10;99.90;;;;;;5047748;28;20184;-82
2023/01/13 10:31:58;;;;;;;14.30;2.60;;;9.20;99.90;;;;;;5047519;28;20652;-81
2023/01/13 10:34:25;;;;;;;17.17;2.73;;;9.20;99.90;;;;;;5047455;28;20630;-81
2023/01/13 10:37:01;;;;;;;13.27;2.70;;;9.30;99.90;;;;;;5049137;28;20265;-82
2023/01/13 10:39:37;;;;;;;13.93;2.90;;;9.30;99.90;;;;;;5048755;28;20243;-82
2023/01/13 10:42:12;;;;;;;8.03;2.27;;;9.40;99.90;;;;;;5046495;28;20235;-80
2023/01/13 10:44:53;;;;;;;11.63;1.73;;;9.50;99.90;;;;;;5048003;28;20635;-79
2023/01/13 10:47:27;;;;;;;11.43;2.00;;;9.60;99.90;;;;;;5049117;28;20222;-80
2023/01/13 10:50:12;;;;;;;11.17;2.30;;;9.60;1.00;;;;;;5050784;28;20159;-81
2023/01/13 10:53:02;;;;;;;12.47;3.07;;;9.70;1.00;;;;;;5049427;28;20168;-80
2023/01/13 10:55:35;;;;;;;15.80;1.97;;;9.80;1.00;;;;;;5050318;28;20250;-81
2023/01/13 10:58:21;;;;;;;12.53;2.00;;;9.70;1.00;;;;;;5049296;28;20165;-81
2023/01/13 11:00:48;;;;;;;16.47;3.17;;;9.80;1.00;;;;;;5064966;28;20204;-81
2023/01/13 11:03:20;;;;;;;16.50;2.03;;;9.80;1.00;;;;;;5048107;28;20172;-81
2023/01/13 11:05:54;;;;;;;12.87;2.43;;;9.80;1.00;;;;;;5049303;28;20178;-80
2023/01/13 11:08:29;;;;;;;13.97;2.80;;;9.70;1.00;;;;;;5047832;28;20178;-79
2023/01/13 11:10:57;;;;;;;16.87;2.47;;;9.70;1.00;;;;;;5046383;28;20202;-80
2023/01/13 11:16:24;;;;;;;17.83;2.50;;;9.60;1.00;;;;;;5046908;28;20248;-79
2023/01/13 11:19:10;;;;;;;8.13;2.23;;;9.70;1.00;;;;;;5049359;28;20164;-81
2023/01/13 11:21:51;;;;;;;9.73;2.47;;;9.70;1.00;;;;;;5049103;28;20231;-80
2023/01/13 11:24:34;;;;;;;16.03;3.07;;;9.60;1.00;;;;;;5049460;28;20156;-81
2023/01/13 11:27:29;;;;;;;13.37;2.70;;;9.70;1.00;;;;;;5047577;28;20165;-80
2023/01/13 11:30:09;;;;;;;12.53;2.03;;;9.70;1.00;;;;;;5047821;28;20217;-81
2023/01/13 11:32:48;;;;;;;12.80;2.60;;;9.70;1.00;;;;;;5047437;28;20176;-80
2023/01/13 11:35:17;;;;;;;17.00;2.43;;;9.60;1.00;;;;;;5048082;28;20164;-81
2023/01/13 11:37:49;;;;;;;9.37;3.23;;;9.60;1.00;;;;;;5049263;28;20183;-81
2023/01/13 11:40:35;;;;;;;14.27;2.50;;;9.70;68.80;;;;;;5047595;28;20168;-81
2023/01/13 11:43:11;;;;;;;12.23;2.30;;;9.70;1.00;;;;;;5047995;28;20260;-80
2023/01/13 11:45:45;;;;;;;14.97;2.73;;;9.70;99.90;;;;;;5047548;28;20156;-80
2023/01/13 11:48:16;;;;;;;11.77;2.80;;;9.70;96.20;;;;;;5046259;28;20187;-81
2023/01/13 11:51:02;;;;;;;18.20;3.03;;;9.70;99.90;;;;;;5047764;28;20192;-79
2023/01/13 11:53:32;;;;;;;14.93;2.70;;;9.60;1.00;;;;;;5048261;28;20165;-79
2023/01/13 11:56:13;;;;;;;14.10;2.20;;;9.50;1.00;;;;;;5048885;28;20168;-80
2023/01/13 11:58:58;;;;;;;9.03;2.47;;;9.40;1.00;;;;;;5046948;28;20195;-80
2023/01/13 12:01:53;;;;;;;20.57;2.87;;;9.40;99.90;;;;;;5046106;28;20208;-80
2023/01/13 12:04:50;;;;;;;13.33;2.60;;;9.30;99.90;;;;;;5042824;28;20525;-79
2023/01/13 12:07:32;;;;;;;15.90;2.57;;;9.20;1.00;;;;;;5045075;28;20635;-80
2023/01/13 12:10:04;;;;;;;8.10;2.30;;;9.10;1.00;;;;;;5045504;28;20156;-79
2023/01/13 12:12:47;;;;;;;9.27;2.40;;;9.00;1.00;;;;;;5041128;28;20169;-78
2023/01/13 12:15:37;;;;;;;14.30;2.27;;;9.00;93.00;;;;;;5037056;28;20178;-79
2023/01/13 12:18:33;;;;;;;12.90;4.03;;;8.80;99.90;;;;;;5039956;28;20514;-78
2023/01/13 12:20:59;;;;;;;10.10;3.13;;;8.60;99.90;;;;;;5041340;28;20208;-79
2023/01/13 12:23:37;;;;;;;16.17;5.00;;;8.50;99.90;;;;;;5052514;28;20177;-80
2023/01/13 12:26:10;;;;;;;14.07;4.90;;;8.40;99.90;;;;;;5052371;28;20180;-81
2023/01/13 12:28:48;;;;;;;12.93;4.57;;;8.20;99.90;;;;;;5056346;28;20211;-86
2023/01/13 12:31:17;;;;;;;10.23;2.97;;;8.00;99.90;;;;;;5056555;28;20206;-85
2023/01/13 12:33:58;;;;;;;8.37;2.30;;;7.90;99.90;;;;;;5057906;28;20187;-86
2023/01/13 12:36:33;;;;;;;4.47;1.30;;;7.80;99.90;;;;;;5066486;28;20176;-88
2023/01/13 12:39:17;;;;;;;3.93;1.00;;;7.70;99.90;;;;;;5064855;28;20201;-84
2023/01/13 12:45:11;;;;;;;15.47;1.53;;;7.70;99.90;;;;;;5064525;28;20807;-83
2023/01/13 12:47:42;;;;;;;7.30;1.93;;;7.70;99.90;;;;;;5070092;28;20167;-82
2023/01/13 12:50:23;;;;;;;9.50;2.10;;;7.80;99.90;;;;;;5072445;28;20167;-84
2023/01/13 12:52:50;;;;;;;11.63;1.80;;;7.80;99.90;;;;;;5065596;28;20188;-83
2023/01/13 12:55:21;;;;;;;8.80;1.60;;;7.90;99.90;;;;;;5067673;28;20186;-84
2023/01/13 12:58:04;;;;;;;10.13;2.03;;;8.00;99.90;;;;;;5063134;28;20569;-85
2023/01/13 13:00:39;;;;;;;9.70;1.90;;;8.10;99.90;;;;;;5058859;28;20199;-83
2023/01/13 13:03:11;;;;;;;12.67;2.67;;;8.10;99.90;;;;;;5059782;28;20650;-81
2023/01/13 13:05:46;;;;;;;9.17;2.13;;;8.20;99.90;;;;;;5060863;28;20166;-81
2023/01/13 13:08:21;;;;;;;11.03;2.37;;;8.20;99.90;;;;;;5060620;28;20164;-82
2023/01/13 13:11:05;;;;;;;19.23;2.93;;;8.30;99.90;;;;;;5058766;28;20258;-82
2023/01/13 13:13:47;;;;;;;16.73;2.73;;;8.40;99.90;;;;;;5059173;28;20179;-82
2023/01/13 13:16:25;;;;;;;14.90;2.13;;;8.40;99.90;;;;;;5058539;28;20167;-81
2023/01/13 13:18:52;;;;;;;10.10;2.73;;;8.40;99.90;;;;;;5058142;28;20175;-82
2023/01/13 13:21:17;;;;;;;12.40;2.60;;;8.50;99.90;;;;;;5058415;28;20218;-81
2023/01/13 13:23:54;;;;;;;11.77;2.80;;;8.50;99.90;;;;;;5058437;28;20168;-82
2023/01/13 13:26:37;;;;;;;13.90;3.07;;;8.50;99.90;;;;;;5059378;28;20697;-82
2023/01/13 13:29:18;;;;;;;17.00;3.13;;;8.50;99.90;;;;;;5059605;28;20159;-82
2023/01/13 13:31:43;;;;;;;9.70;2.23;;;8.60;99.90;;;;;;5060338;28;20266;-82
2023/01/13 13:34:31;;;;;;;7.63;1.73;;;8.60;99.90;;;;;;5059745;28;20254;-82
2023/01/13 13:48:53;;;;;;;15.60;2.60;;;8.50;99.90;;;;;;5051793;28;20194;-83
2023/01/13 13:51:35;;;;;;;17.23;2.43;;;8.50;99.90;;;;;;5052615;28;20202;-81
2023/01/13 13:54:01;;;;;;;17.57;2.93;;;8.60;99.90;;;;;;5042191;28;20678;-83
2023/01/13 13:56:31;;;;;;;14.87;2.70;;;8.60;99.90;;;;;;5057978;28;20182;-81
2023/01/13 13:58:56;;;;;;;11.93;3.00;;;8.50;99.90;;;;;;5057771;28;20199;-83
2023/01/13 14:01:28;;;;;;;7.03;1.83;;;8.60;99.90;;;;;;5056928;28;20198;-82
2023/01/13 14:04:16;;;;;;;15.03;2.63;;;8.50;99.90;;;;;;5056944;28;20202;-82
2023/01/13 14:06:49;;;;;;;18.40;3.17;;;8.50;99.90;;;;;;5035957;28;20177;-82
2023/01/13 14:09:16;;;;;;;11.00;2.37;;;8.40;99.90;;;;;;5038090;28;20581;-82
2023/01/13 14:11:42;;;;;;;13.20;2.70;;;8.40;99.90;;;;;;5038029;28;20278;-82
2023/01/13 14:14:13;;;;;;;9.60;2.43;;;8.40;99.90;;;;;;5036954;28;20265;-83
2023/01/13 14:16:39;;;;;;;12.23;2.60;;;8.40;99.90;;;;;;5037993;28;20183;-82
2023/01/13 14:19:05;;;;;;;13.73;3.13;;;8.40;99.90;;;;;;5038182;28;20215;-81
2023/01/13 14:21:31;;;;;;;15.23;2.87;;;8.40;99.90;;;;;;5042819;28;20235;-83